Time;durP1;ratioP1;P1;durP2;ratioP2;P2;SDS_P1;SDS_P2;PMS_P1;PMS_P2;Temp;Humidity;BMP_temperature;BMP_pressure;BME280_temperature;BME280_humidity;BME280_pressure;Samples;Min_cycle;Max_cycle;Signal;HPM_P1;HPM_P2
2021/12/24 00:00:38;;;;;;;5.60;2.78;;;;;;;8.43;72.99;100172.94;5023432;28;20037;-87
2021/12/24 00:03:04;;;;;;;5.43;3.60;;;;;;;8.44;73.28;100172.06;5025360;28;20081;-88
2021/12/24 00:05:30;;;;;;;6.53;3.35;;;;;;;8.39;73.79;100173.88;5021454;28;20057;-87
2021/12/24 00:07:55;;;;;;;6.85;3.42;;;;;;;8.40;73.45;100176.44;5025449;28;20124;-88
2021/12/24 00:10:21;;;;;;;6.90;3.38;;;;;;;8.40;73.59;100170.41;5024144;28;20124;-88
2021/12/24 00:12:56;;;;;;;7.57;3.35;;;;;;;8.47;72.37;100164.22;5026657;28;20037;-88
2021/12/24 00:18:18;;;;;;;7.07;2.97;;;;;;;8.44;72.88;100153.94;5024517;28;19913;-88
2021/12/24 00:37:09;;;;;;;6.47;3.10;;;;;;;8.46;72.96;100140.06;5024822;28;20068;-88
2021/12/24 00:39:42;;;;;;;6.13;3.38;;;;;;;8.48;73.10;100138.28;5008934;28;20042;-88
2021/12/24 00:42:08;;;;;;;7.20;3.30;;;;;;;8.54;72.72;100135.56;5025189;28;20033;-87
2021/12/24 00:44:33;;;;;;;6.38;3.70;;;;;;;8.43;73.73;100140.16;5020760;28;20041;-88
2021/12/24 00:46:59;;;;;;;7.60;3.67;;;;;;;8.45;73.38;100140.94;5021750;28;20516;-87
2021/12/24 00:49:24;;;;;;;7.10;3.10;;;;;;;8.55;73.41;100139.00;5026102;28;20585;-88
2021/12/24 00:57:19;;;;;;;6.03;3.25;;;;;;;8.54;73.25;100126.94;5024064;28;20024;-87
2021/12/24 00:59:45;;;;;;;7.10;4.03;;;;;;;8.55;73.27;100119.16;5026179;28;20441;-88
2021/12/24 01:02:10;;;;;;;5.22;2.80;;;;;;;8.52;73.66;100120.97;5020223;28;20038;-88
2021/12/24 01:04:36;;;;;;;5.70;2.80;;;;;;;8.52;73.46;100123.56;5025529;28;20510;-88
2021/12/24 01:07:02;;;;;;;6.00;2.58;;;;;;;8.51;73.12;100120.09;5015813;28;20518;-88
2021/12/24 01:09:28;;;;;;;4.65;2.58;;;;;;;8.59;72.86;100120.78;5022030;28;20494;-88
2021/12/24 01:11:53;;;;;;;4.63;2.50;;;;;;;8.46;73.90;100128.88;5019667;28;20057;-88
2021/12/24 01:14:21;;;;;;;6.22;2.33;;;;;;;8.64;72.96;100126.72;5021162;28;20132;-88
2021/12/24 01:17:01;;;;;;;4.55;2.80;;;;;;;8.61;72.76;100131.09;5024157;28;20494;-88
2021/12/24 01:19:27;;;;;;;3.88;2.45;;;;;;;8.54;73.22;100132.13;5027416;28;20079;-88
2021/12/24 01:24:33;;;;;;;4.32;2.28;;;;;;;8.58;72.65;100129.44;5025099;28;20045;-88
2021/12/24 01:43:04;;;;;;;2.58;1.52;;;;;;;8.58;73.25;100128.59;5013655;28;20052;-88
2021/12/24 01:45:33;;;;;;;4.25;1.63;;;;;;;8.58;72.88;100123.41;5026227;28;20142;-88
2021/12/24 01:48:09;;;;;;;1.92;1.40;;;;;;;8.62;72.62;100128.47;5026296;28;20040;-88
2021/12/24 01:50:38;;;;;;;4.05;1.60;;;;;;;8.61;72.72;100123.34;5026498;28;20041;-88
2021/12/24 01:53:06;;;;;;;2.97;1.33;;;;;;;8.58;72.62;100118.25;5028294;28;20037;-88
2021/12/24 01:55:33;;;;;;;2.78;1.50;;;;;;;8.68;72.28;100115.38;5031035;28;20026;-88
2021/12/24 01:57:58;;;;;;;1.50;1.00;;;;;;;8.60;72.33;100100.91;5023629;28;20037;-88
2021/12/24 02:00:28;;;;;;;3.38;1.48;;;;;;;8.69;72.27;100096.38;5022661;28;20118;-88
2021/12/24 02:02:54;;;;;;;2.03;1.35;;;;;;;8.58;72.57;100093.19;5023765;28;20029;-88
2021/12/24 02:05:20;;;;;;;2.58;1.20;;;;;;;8.66;72.41;100093.00;5013732;28;20068;-88
2021/12/24 02:07:46;;;;;;;2.33;1.20;;;;;;;8.66;71.83;100098.19;5024332;28;20057;-88
2021/12/24 02:10:17;;;;;;;1.70;1.10;;;;;;;8.65;71.92;100102.50;5026018;28;20573;-88
2021/12/24 02:12:43;;;;;;;1.67;1.08;;;;;;;8.59;72.30;100099.25;5040273;28;20248;-88
2021/12/24 02:15:19;;;;;;;3.17;1.00;;;;;;;8.59;72.00;100099.25;5021015;28;20036;-88
2021/12/24 02:28:47;;;;;;;2.73;1.23;;;;;;;8.68;71.02;100110.22;5022037;28;20191;-88
2021/12/24 02:31:18;;;;;;;3.67;1.20;;;;;;;8.66;71.15;100105.97;5022904;28;20997;-88
2021/12/24 02:33:44;;;;;;;3.88;1.48;;;;;;;8.71;70.95;100106.72;5008023;28;20046;-88
2021/12/24 02:36:11;;;;;;;4.80;1.63;;;;;;;8.76;70.60;100102.28;5011534;28;20115;-87
2021/12/24 02:38:38;;;;;;;2.53;1.33;;;;;;;8.72;70.76;100095.44;5029931;28;20025;-88
2021/12/24 02:41:05;;;;;;;2.03;1.13;;;;;;;8.64;70.99;100106.00;5021594;28;20038;-88
2021/12/24 02:43:32;;;;;;;3.60;1.60;;;;;;;8.73;70.20;100092.00;5027396;28;20604;-88
2021/12/24 02:46:06;;;;;;;2.40;1.20;;;;;;;8.62;71.04;100092.22;5030801;28;20164;-88
2021/12/24 02:54:01;;;;;;;2.97;1.70;;;;;;;8.60;70.85;100081.06;5028465;28;20048;-88
2021/12/24 02:56:33;;;;;;;7.07;1.88;;;;;;;8.71;70.25;100078.25;5020111;28;20041;-88
2021/12/24 02:59:01;;;;;;;4.50;1.67;;;;;;;8.63;70.62;100075.81;5027369;28;20051;-88
2021/12/24 03:01:30;;;;;;;2.55;1.40;;;;;;;8.70;70.25;100087.75;5024350;28;20183;-88
2021/12/24 03:03:56;;;;;;;6.03;1.80;;;;;;;8.63;70.79;100081.00;5021985;28;20121;-88
2021/12/24 03:06:28;;;;;;;4.18;1.90;;;;;;;8.68;70.02;100076.53;5025486;28;20106;-88
2021/12/24 03:08:54;;;;;;;5.15;2.05;;;;;;;8.72;70.41;100077.31;5031689;28;20118;-88
2021/12/24 03:11:20;;;;;;;9.02;3.13;;;;;;;8.71;69.99;100071.28;5023494;28;20069;-88
2021/12/24 03:13:46;;;;;;;4.97;1.70;;;;;;;8.68;70.36;100073.97;5022745;28;20045;-88
2021/12/24 03:16:12;;;;;;;5.38;2.28;;;;;;;8.59;70.14;100074.19;5011195;28;20033;-88
2021/12/24 03:18:40;;;;;;;6.75;2.78;;;;;;;8.64;70.24;100071.50;5029288;28;20037;-88
2021/12/24 03:21:11;;;;;;;4.13;1.90;;;;;;;8.63;69.93;100074.97;5027290;28;20033;-87
2021/12/24 03:23:43;;;;;;;3.63;1.95;;;;;;;8.69;69.68;100077.41;5027641;28;20048;-88
2021/12/24 03:26:11;;;;;;;5.53;2.15;;;;;;;8.68;70.11;100079.13;5028315;28;21201;-88
2021/12/24 03:28:37;;;;;;;3.67;1.73;;;;;;;8.64;70.48;100079.25;5025922;28;20037;-88
2021/12/24 03:31:04;;;;;;;4.75;1.92;;;;;;;8.67;70.47;100081.78;5025185;28;20129;-88
2021/12/24 03:33:31;;;;;;;5.20;2.03;;;;;;;8.55;71.30;100079.47;5013000;28;20525;-88
2021/12/24 03:35:56;;;;;;;3.92;1.88;;;;;;;8.64;70.92;100084.44;5027261;28;20036;-88
2021/12/24 03:38:22;;;;;;;4.07;1.80;;;;;;;8.46;71.90;100077.97;5030366;28;20041;-88
2021/12/24 03:40:48;;;;;;;7.05;2.00;;;;;;;8.53;72.07;100087.28;5024224;28;20041;-88
2021/12/24 03:43:14;;;;;;;5.05;2.05;;;;;;;8.45;71.75;100080.56;5026358;28;20172;-88
2021/12/24 03:48:17;;;;;;;5.43;1.85;;;;;;;8.54;71.81;100068.25;5024850;28;20040;-88
2021/12/24 03:50:54;;;;;;;4.13;2.05;;;;;;;8.53;72.06;100063.13;5022943;28;20438;-88
2021/12/24 03:56:03;;;;;;;5.65;2.20;;;;;;;8.51;71.59;100072.66;5023123;28;20040;-88
2021/12/24 03:58:29;;;;;;;4.38;1.60;;;;;;;8.56;71.43;100071.66;5022057;28;20037;-88
2021/12/24 04:00:55;;;;;;;7.50;2.50;;;;;;;8.56;71.71;100068.25;5010504;28;20144;-88
2021/12/24 04:03:20;;;;;;;4.30;1.83;;;;;;;8.54;71.43;100073.44;4993084;28;20398;-88
2021/12/24 04:05:46;;;;;;;6.72;2.17;;;;;;;8.56;72.07;100070.84;5009767;28;20098;-88
2021/12/24 04:08:13;;;;;;;2.88;1.75;;;;;;;8.60;71.95;100075.03;5025109;28;20045;-88
2021/12/24 04:13:04;;;;;;;6.82;2.13;;;;;;;8.55;72.06;100062.22;5022858;28;20047;-88
2021/12/24 04:15:29;;;;;;;4.50;1.77;;;;;;;8.58;71.47;100051.78;4993632;28;20667;-88
2021/12/24 04:17:55;;;;;;;2.55;1.70;;;;;;;8.60;71.89;100060.34;5026116;28;20505;-87
2021/12/24 04:25:49;;;;;;;3.05;1.95;;;;;;;8.62;72.05;100052.56;5010571;28;20129;-88
2021/12/24 04:28:15;;;;;;;5.85;1.90;;;;;;;8.58;71.99;100056.97;5000848;28;20124;-88
2021/12/24 04:30:46;;;;;;;4.85;1.80;;;;;;;8.51;72.00;100054.53;5004173;28;20033;-88
2021/12/24 04:33:20;;;;;;;4.38;2.00;;;;;;;8.56;72.04;100053.53;5036336;28;20029;-88
2021/12/24 04:35:57;;;;;;;2.30;1.50;;;;;;;8.57;71.50;100046.63;5022833;28;20016;-88
2021/12/24 04:38:37;;;;;;;5.15;1.77;;;;;;;8.60;70.94;100055.19;5010645;28;20053;-88
2021/12/24 04:52:08;;;;;;;4.70;2.05;;;;;;;8.55;71.29;100066.53;5021244;28;20039;-88
2021/12/24 05:03:13;;;;;;;5.00;2.17;;;;;;;8.65;70.17;100055.91;5023571;28;20136;-88
2021/12/24 05:10:38;;;;;;;3.42;1.90;;;;;;;8.61;69.61;100056.88;5022694;28;20100;-88
2021/12/24 05:13:05;;;;;;;5.35;2.50;;;;;;;8.67;70.19;100066.25;5027729;28;20128;-87
2021/12/24 05:15:34;;;;;;;5.78;2.08;;;;;;;8.65;70.47;100063.69;5006265;28;20034;-88
2021/12/24 05:23:10;;;;;;;5.63;2.20;;;;;;;8.77;68.21;100060.78;5020371;28;20084;-88
2021/12/24 05:25:42;;;;;;;5.38;1.83;;;;;;;8.72;68.94;100061.78;5022587;28;20038;-87
2021/12/24 05:28:08;;;;;;;5.80;2.25;;;;;;;8.65;69.60;100068.84;5022266;28;20033;-87
2021/12/24 05:30:34;;;;;;;8.60;2.63;;;;;;;8.80;68.60;100072.81;5021526;28;20033;-88
2021/12/24 05:32:59;;;;;;;4.18;1.95;;;;;;;8.86;67.92;100077.84;5023215;28;20497;-87
2021/12/24 05:35:25;;;;;;;7.22;2.22;;;;;;;8.76;68.12;100077.22;5022328;28;20065;-88
2021/12/24 05:37:50;;;;;;;4.65;1.90;;;;;;;8.82;67.86;100076.22;5022375;28;20030;-88
2021/12/24 05:40:16;;;;;;;2.72;1.55;;;;;;;8.71;68.28;100078.25;5026149;28;20038;-87
2021/12/24 05:42:42;;;;;;;3.45;1.88;;;;;;;8.73;67.88;100079.91;5022789;28;20033;-87
2021/12/24 05:45:10;;;;;;;2.38;1.80;;;;;;;8.65;68.29;100073.22;5029736;28;20017;-87
2021/12/24 05:47:36;;;;;;;4.68;1.70;;;;;;;8.72;68.01;100087.69;5023249;28;20056;-87
2021/12/24 05:50:02;;;;;;;3.42;1.88;;;;;;;8.64;68.61;100095.66;5028833;28;20033;-88
2021/12/24 05:52:28;;;;;;;4.82;2.30;;;;;;;8.72;68.31;100106.66;5007751;28;20108;-88
2021/12/24 05:54:54;;;;;;;4.10;2.00;;;;;;;8.78;67.74;100103.06;5020520;28;20560;-88
2021/12/24 05:57:19;;;;;;;4.97;2.03;;;;;;;8.77;67.95;100104.81;5022310;28;20045;-87
2021/12/24 05:59:45;;;;;;;5.60;1.98;;;;;;;8.74;68.12;100110.06;5027664;28;20508;-87
2021/12/24 06:02:11;;;;;;;6.47;2.22;;;;;;;8.73;67.51;100115.28;5022131;28;20045;-87
2021/12/24 06:04:36;;;;;;;5.90;1.98;;;;;;;8.81;67.59;100103.00;5019424;28;20513;-88
2021/12/24 06:07:02;;;;;;;7.32;2.47;;;;;;;8.79;67.76;100104.78;5025472;28;20057;-87
2021/12/24 06:09:28;;;;;;;5.40;2.40;;;;;;;8.70;68.84;100105.88;4999489;28;20454;-88
2021/12/24 06:11:53;;;;;;;4.70;2.25;;;;;;;8.69;68.54;100109.31;5024084;28;20025;-87
2021/12/24 06:14:19;;;;;;;5.10;2.10;;;;;;;8.71;67.96;100117.06;5021821;28;20029;-87
2021/12/24 06:16:51;;;;;;;6.70;2.50;;;;;;;8.74;68.23;100106.66;5006974;28;20087;-88
2021/12/24 06:19:17;;;;;;;5.20;1.98;;;;;;;8.67;68.64;100110.25;5007581;28;20037;-87
2021/12/24 06:21:44;;;;;;;3.92;2.17;;;;;;;8.62;69.02;100112.13;5018323;28;20486;-87
2021/12/24 06:24:12;;;;;;;6.45;2.72;;;;;;;8.63;68.83;100109.47;5025695;28;20027;-87
2021/12/24 06:26:38;;;;;;;6.30;2.67;;;;;;;8.60;68.66;100108.69;5025673;28;20075;-87
2021/12/24 06:29:03;;;;;;;5.15;2.05;;;;;;;8.64;68.83;100107.75;5017638;28;20057;-87
2021/12/24 06:31:29;;;;;;;8.90;2.92;;;;;;;8.64;69.25;100103.41;5051891;28;20046;-88
2021/12/24 06:33:54;;;;;;;5.07;2.10;;;;;;;8.73;69.01;100098.03;5020622;28;20073;-87
2021/12/24 06:36:20;;;;;;;3.80;2.40;;;;;;;8.77;68.43;100104.81;5019556;28;20117;-87
2021/12/24 06:38:45;;;;;;;5.63;2.58;;;;;;;8.81;68.65;100100.41;5025031;28;20101;-88
2021/12/24 06:41:11;;;;;;;6.43;2.28;;;;;;;8.82;68.32;100094.34;5016767;28;20033;-87
2021/12/24 06:43:36;;;;;;;8.65;3.25;;;;;;;8.76;68.71;100092.78;5025292;28;20037;-87
2021/12/24 06:46:10;;;;;;;7.65;2.70;;;;;;;8.71;69.01;100094.59;5037703;28;20045;-87
2021/12/24 06:48:36;;;;;;;5.90;2.50;;;;;;;8.67;69.43;100098.16;5024906;28;20505;-87
2021/12/24 06:51:02;;;;;;;7.40;2.65;;;;;;;8.77;68.35;100097.03;5026353;28;20026;-87
2021/12/24 06:53:27;;;;;;;7.05;2.58;;;;;;;8.53;69.27;100100.25;4990663;28;20046;-87
2021/12/24 06:55:53;;;;;;;6.88;2.80;;;;;;;8.55;69.24;100089.84;5028093;28;20044;-88
2021/12/24 06:58:18;;;;;;;4.82;2.33;;;;;;;8.61;68.94;100085.38;5025698;28;20042;-87
2021/12/24 07:00:44;;;;;;;5.90;2.25;;;;;;;8.65;69.22;100084.38;5008180;28;20343;-87
2021/12/24 07:03:09;;;;;;;8.10;2.60;;;;;;;8.64;69.00;100089.63;5019383;28;20040;-87
2021/12/24 07:05:35;;;;;;;7.82;2.58;;;;;;;8.58;69.14;100095.78;5011595;28;20029;-87
2021/12/24 07:08:01;;;;;;;8.85;3.05;;;;;;;8.58;69.05;100093.19;5023740;28;20037;-87
2021/12/24 07:10:36;;;;;;;6.45;2.60;;;;;;;8.56;68.91;100091.53;5024940;28;20063;-87
2021/12/24 07:13:02;;;;;;;5.63;2.30;;;;;;;8.66;68.79;100083.50;5041725;28;20034;-87
2021/12/24 07:15:27;;;;;;;8.30;2.67;;;;;;;8.60;69.68;100086.25;5028461;28;20950;-88
2021/12/24 07:17:53;;;;;;;6.72;2.58;;;;;;;8.57;69.12;100095.81;5018713;28;20037;-88
2021/12/24 07:20:19;;;;;;;6.00;2.20;;;;;;;8.59;69.10;100094.88;5024304;28;20042;-88
2021/12/24 07:22:44;;;;;;;5.20;2.50;;;;;;;8.60;69.53;100087.97;5026600;28;20502;-88
2021/12/24 07:25:10;;;;;;;6.80;3.47;;;;;;;8.61;69.50;100094.88;5027252;28;20495;-88
2021/12/24 07:27:36;;;;;;;5.30;2.42;;;;;;;8.48;70.11;100104.66;5039425;28;20041;-86
2021/12/24 07:30:05;;;;;;;6.50;2.35;;;;;;;8.50;69.60;100107.22;5028204;28;20029;-86
2021/12/24 07:32:31;;;;;;;6.88;2.47;;;;;;;8.55;69.20;100115.72;5042526;28;20052;-86
2021/12/24 07:34:57;;;;;;;6.47;2.55;;;;;;;8.61;69.00;100123.34;5007768;28;20034;-87
2021/12/24 07:37:22;;;;;;;5.35;1.83;;;;;;;8.63;68.55;100127.59;5025570;28;20494;-88
2021/12/24 07:39:48;;;;;;;8.32;2.47;;;;;;;8.70;68.19;100129.16;5024942;28;20044;-88
2021/12/24 07:42:13;;;;;;;6.70;2.92;;;;;;;8.63;69.24;100129.31;5021413;28;20032;-88
2021/12/24 07:44:39;;;;;;;3.83;1.90;;;;;;;8.58;68.74;100132.03;5025125;28;20044;-88
2021/12/24 07:47:14;;;;;;;5.00;2.25;;;;;;;8.62;68.96;100140.59;5019236;28;20045;-88
2021/12/24 07:49:41;;;;;;;6.30;2.28;;;;;;;8.70;69.02;100142.13;5030126;28;20037;-88
2021/12/24 07:54:33;;;;;;;3.58;2.05;;;;;;;8.64;68.74;100133.63;5026739;28;20522;-87
2021/12/24 07:57:00;;;;;;;12.65;2.20;;;;;;;8.77;68.00;100135.06;5021139;28;20026;-87
2021/12/24 07:59:27;;;;;;;4.00;1.95;;;;;;;8.71;68.84;100136.03;5026713;28;20041;-86
2021/12/24 08:01:57;;;;;;;7.95;2.80;;;;;;;8.84;68.42;100125.38;5025923;28;20033;-86
2021/12/24 08:04:22;;;;;;;5.45;1.90;;;;;;;8.74;69.13;100129.94;5024335;28;20056;-86
2021/12/24 08:06:48;;;;;;;6.07;2.13;;;;;;;8.68;68.79;100130.09;5020467;28;20038;-87
2021/12/24 08:09:14;;;;;;;7.32;2.22;;;;;;;8.73;68.27;100133.41;5028430;28;20708;-86
2021/12/24 08:11:39;;;;;;;7.25;2.42;;;;;;;8.70;68.77;100136.94;5020861;28;20099;-86
2021/12/24 08:14:06;;;;;;;2.95;1.95;;;;;;;8.58;69.79;100144.97;5027245;28;20384;-86
2021/12/24 08:16:33;;;;;;;7.70;2.20;;;;;;;8.71;68.46;100141.19;5023083;28;20037;-86
2021/12/24 08:18:59;;;;;;;5.80;1.80;;;;;;;8.64;69.59;100133.63;5023064;28;20344;-86
2021/12/24 08:21:26;;;;;;;8.07;2.45;;;;;;;8.65;69.15;100138.75;5021440;28;20506;-86
2021/12/24 08:23:51;;;;;;;5.53;1.92;;;;;;;8.73;67.98;100136.00;5017323;28;20041;-87
2021/12/24 08:26:21;;;;;;;6.07;2.40;;;;;;;8.73;68.26;100133.41;5026432;28;20046;-86
2021/12/24 08:28:47;;;;;;;8.70;2.40;;;;;;;8.70;68.90;100131.75;5023939;28;20034;-86
2021/12/24 08:31:13;;;;;;;7.57;2.47;;;;;;;8.74;68.94;100133.38;5020753;28;20038;-86
2021/12/24 08:33:38;;;;;;;8.05;2.40;;;;;;;8.63;69.50;100130.19;5024597;28;20045;-86
2021/12/24 08:36:05;;;;;;;9.02;2.40;;;;;;;8.59;69.56;100122.53;5025610;28;20064;-85
2021/12/24 08:38:31;;;;;;;5.38;2.28;;;;;;;8.66;69.18;100121.50;5023145;28;20049;-86
2021/12/24 08:40:56;;;;;;;8.05;2.05;;;;;;;8.69;69.37;100119.69;5025564;28;20406;-86
2021/12/24 08:43:22;;;;;;;13.18;3.13;;;;;;;8.71;68.39;100115.31;5026196;28;20065;-86
2021/12/24 08:45:47;;;;;;;3.65;2.10;;;;;;;8.61;69.49;100113.00;5025323;28;20129;-86
2021/12/24 08:48:13;;;;;;;5.55;1.80;;;;;;;8.72;68.28;100114.44;5025412;28;20125;-86
2021/12/24 08:50:39;;;;;;;5.45;2.70;;;;;;;8.80;67.96;100112.50;5025925;28;20055;-86
2021/12/24 08:53:06;;;;;;;5.57;1.85;;;;;;;8.78;67.88;100108.25;5007768;28;20064;-87
2021/12/24 08:55:32;;;;;;;7.28;2.58;;;;;;;8.70;68.69;100108.44;5024331;28;20064;-87
2021/12/24 08:57:57;;;;;;;4.53;2.20;;;;;;;8.73;68.51;100094.56;5020240;28;20061;-87
2021/12/24 09:00:23;;;;;;;4.88;2.10;;;;;;;8.72;68.27;100096.31;5022832;28;20576;-86
2021/12/24 09:02:49;;;;;;;7.80;2.22;;;;;;;8.79;67.79;100095.28;5022226;28;20017;-86
2021/12/24 09:05:15;;;;;;;7.00;2.10;;;;;;;8.78;68.21;100084.94;5022045;28;20030;-87
2021/12/24 09:07:41;;;;;;;8.27;2.13;;;;;;;8.67;69.31;100092.13;5021421;28;20040;-86
2021/12/24 09:10:09;;;;;;;3.95;1.90;;;;;;;8.67;69.37;100090.41;5025167;28;20033;-87
2021/12/24 09:12:34;;;;;;;4.55;2.08;;;;;;;8.68;68.87;100084.31;5023964;28;20049;-87
2021/12/24 09:15:01;;;;;;;6.93;2.22;;;;;;;8.73;68.54;100071.28;5025471;28;20044;-88
2021/12/24 09:17:28;;;;;;;4.47;1.83;;;;;;;8.73;68.69;100077.31;5053543;28;20038;-87
2021/12/24 09:19:55;;;;;;;8.85;2.22;;;;;;;8.78;68.55;100079.78;5026962;28;20557;-87
2021/12/24 09:22:28;;;;;;;4.25;1.83;;;;;;;8.82;68.08;100084.00;5020901;28;20111;-86
2021/12/24 09:24:54;;;;;;;6.10;1.75;;;;;;;8.84;67.16;100077.03;5024765;28;20038;-86
2021/12/24 09:27:20;;;;;;;8.05;1.88;;;;;;;8.90;66.47;100076.03;5018924;28;20035;-86
2021/12/24 09:29:46;;;;;;;4.20;1.83;;;;;;;8.93;67.10;100081.13;5026467;28;20021;-87
2021/12/24 09:32:11;;;;;;;6.40;2.03;;;;;;;8.89;67.25;100088.13;5026032;28;20045;-87
2021/12/24 09:34:37;;;;;;;7.90;2.05;;;;;;;8.89;67.62;100092.47;5024442;28;20045;-86
2021/12/24 09:37:03;;;;;;;8.95;2.42;;;;;;;8.89;66.85;100088.13;5023861;28;20073;-85
2021/12/24 09:39:28;;;;;;;4.25;1.92;;;;;;;8.98;66.73;100082.72;5022230;28;20742;-85
2021/12/24 09:41:54;;;;;;;5.60;2.30;;;;;;;8.95;67.10;100087.13;5024881;28;20037;-86
2021/12/24 09:44:22;;;;;;;7.13;1.90;;;;;;;8.99;67.04;100080.97;5024796;28;20049;-87
2021/12/24 09:46:47;;;;;;;3.85;1.73;;;;;;;8.98;66.31;100069.75;5021972;28;20041;-85
2021/12/24 09:49:13;;;;;;;7.70;2.20;;;;;;;8.90;67.71;100066.50;5023207;28;20041;-86
2021/12/24 09:51:41;;;;;;;5.65;2.00;;;;;;;9.01;66.42;100074.84;5022325;28;20172;-87
2021/12/24 09:54:16;;;;;;;5.15;1.70;;;;;;;8.99;66.87;100062.84;5019302;28;21491;-86
2021/12/24 09:56:43;;;;;;;3.42;2.00;;;;;;;8.96;67.04;100070.69;5023882;28;20021;-85
2021/12/24 09:59:09;;;;;;;8.57;1.85;;;;;;;8.97;67.48;100073.25;5020840;28;20112;-85
2021/12/24 10:01:43;;;;;;;4.35;1.75;;;;;;;8.98;67.73;100074.13;5021219;28;20033;-87
2021/12/24 10:04:14;;;;;;;10.90;2.37;;;;;;;9.03;67.49;100074.84;5019969;28;20041;-85
2021/12/24 10:07:03;;;;;;;6.10;1.98;;;;;;;9.13;66.39;100068.50;5021171;28;20283;-85
2021/12/24 10:09:43;;;;;;;6.40;1.80;;;;;;;9.12;67.17;100059.91;5020864;28;20048;-86
2021/12/24 10:12:14;;;;;;;8.45;2.47;;;;;;;9.13;66.62;100066.78;5022364;28;20037;-86
2021/12/24 10:15:01;;;;;;;6.10;2.25;;;;;;;9.12;66.49;100072.88;5026776;28;20033;-86
2021/12/24 10:17:32;;;;;;;6.28;2.55;;;;;;;9.22;65.73;100069.13;5022670;28;20133;-87
2021/12/24 10:20:01;;;;;;;6.20;2.22;;;;;;;9.11;66.37;100067.72;5025378;28;20036;-86
2021/12/24 10:22:26;;;;;;;6.22;1.77;;;;;;;9.16;66.18;100051.16;5023359;28;20084;-88
2021/12/24 10:25:08;;;;;;;6.20;2.13;;;;;;;9.21;66.52;100057.06;5028212;28;20509;-85
2021/12/24 10:27:35;;;;;;;6.65;2.00;;;;;;;9.20;66.66;100060.56;5023486;28;20060;-87
2021/12/24 10:30:22;;;;;;;5.07;2.15;;;;;;;9.20;66.70;100063.13;5024940;28;20036;-85
2021/12/24 10:32:48;;;;;;;6.90;2.40;;;;;;;9.27;66.51;100046.53;5026219;28;20049;-86
2021/12/24 10:35:32;;;;;;;8.93;2.20;;;;;;;9.28;66.36;100050.81;5026746;28;20044;-85
2021/12/24 10:38:17;;;;;;;8.82;2.60;;;;;;;9.40;66.05;100043.59;5025549;28;20045;-86
2021/12/24 10:40:48;;;;;;;7.15;2.20;;;;;;;9.45;66.24;100041.75;5025475;28;20026;-85
2021/12/24 10:43:27;;;;;;;5.70;2.17;;;;;;;9.38;66.09;100035.88;5024054;28;20041;-85
2021/12/24 10:46:19;;;;;;;5.75;2.17;;;;;;;9.46;66.11;100038.25;5027873;28;20042;-85
2021/12/24 10:49:17;;;;;;;6.75;2.33;;;;;;;9.50;66.34;100030.34;5024505;28;20529;-85
2021/12/24 10:52:16;;;;;;;6.20;2.25;;;;;;;9.51;66.07;100033.78;5023363;28;20049;-85
2021/12/24 10:54:59;;;;;;;5.72;1.67;;;;;;;9.58;66.55;100032.72;5025206;28;20037;-85
2021/12/24 10:57:29;;;;;;;9.07;2.47;;;;;;;9.50;66.11;100030.34;5023899;28;20069;-85
2021/12/24 10:59:57;;;;;;;6.53;2.10;;;;;;;9.50;66.17;100032.94;5021889;28;20021;-85
2021/12/24 11:02:33;;;;;;;6.88;2.88;;;;;;;9.61;65.11;100027.44;5028065;28;20124;-85
2021/12/24 11:05:00;;;;;;;8.70;2.72;;;;;;;9.54;65.78;100034.56;5025795;28;20073;-85
2021/12/24 11:07:38;;;;;;;5.28;2.53;;;;;;;9.52;65.21;100033.72;5026767;28;20042;-86
2021/12/24 11:10:19;;;;;;;10.13;2.20;;;;;;;9.54;65.67;100034.56;5025006;28;20037;-86
2021/12/24 11:12:45;;;;;;;6.97;1.63;;;;;;;9.53;65.21;100039.78;5025421;28;20045;-85
2021/12/24 11:15:23;;;;;;;5.30;1.88;;;;;;;9.54;65.79;100044.09;5026949;28;20479;-86
2021/12/24 11:17:52;;;;;;;4.43;2.30;;;;;;;9.58;65.98;100038.75;5024495;28;20064;-86
2021/12/24 11:20:18;;;;;;;6.13;2.17;;;;;;;9.62;65.42;100040.38;5022434;28;20041;-86
2021/12/24 11:22:59;;;;;;;10.85;2.55;;;;;;;9.58;65.41;100043.94;5026463;28;20042;-85
2021/12/24 11:25:28;;;;;;;4.60;1.58;;;;;;;9.54;65.67;100041.50;5021593;28;20046;-86
2021/12/24 11:27:54;;;;;;;8.02;1.85;;;;;;;9.62;65.48;100044.72;5024255;28;20103;-86
2021/12/24 11:30:21;;;;;;;5.38;1.83;;;;;;;9.66;64.77;100036.78;5025838;28;20517;-86
2021/12/24 11:32:48;;;;;;;6.13;2.10;;;;;;;9.72;64.78;100031.41;5020991;28;20041;-86
2021/12/24 11:35:14;;;;;;;8.07;1.98;;;;;;;9.68;65.74;100032.41;5026211;28;20037;-86
2021/12/24 11:37:46;;;;;;;5.93;1.67;;;;;;;9.71;64.97;100026.28;5023967;28;20037;-87
2021/12/24 11:40:16;;;;;;;10.32;1.50;;;;;;;9.74;64.75;100028.78;5019522;28;20128;-86
2021/12/24 11:42:50;;;;;;;3.35;1.98;;;;;;;9.72;64.32;100015.03;5025899;28;20373;-86
2021/12/24 11:45:16;;;;;;;5.30;1.67;;;;;;;9.82;64.95;100011.25;5019990;28;20046;-86
2021/12/24 11:47:42;;;;;;;6.55;1.67;;;;;;;9.70;64.30;100004.69;5026475;28;20036;-86
2021/12/24 11:50:08;;;;;;;5.82;2.45;;;;;;;9.77;64.25;100008.81;5024697;28;20195;-87
2021/12/24 11:52:35;;;;;;;7.60;2.50;;;;;;;9.68;64.17;100008.22;5026010;28;20041;-86
2021/12/24 11:55:01;;;;;;;9.00;2.20;;;;;;;9.73;64.33;100017.56;5025606;28;20049;-87
2021/12/24 11:57:26;;;;;;;11.52;2.67;;;;;;;9.64;64.17;100007.47;5026977;28;20903;-86
2021/12/24 11:59:52;;;;;;;8.27;2.00;;;;;;;9.77;64.36;100008.81;5024495;28;20022;-87
2021/12/24 12:02:35;;;;;;;5.88;1.60;;;;;;;9.61;65.32;99997.16;5019074;28;20376;-87
2021/12/24 12:05:32;;;;;;;10.18;2.40;;;;;;;9.66;64.84;100012.63;5026064;28;20041;-87
2021/12/24 12:08:23;;;;;;;8.18;2.47;;;;;;;9.59;64.99;100016.28;5002896;28;20045;-87
2021/12/24 12:10:53;;;;;;;11.23;2.70;;;;;;;9.58;65.47;100009.38;5022305;28;20032;-87
2021/12/24 12:13:45;;;;;;;7.05;2.42;;;;;;;9.50;65.11;100017.38;5025757;28;20510;-87
2021/12/24 12:16:24;;;;;;;8.88;2.05;;;;;;;9.70;64.95;100011.59;5023229;28;20049;-87
2021/12/24 12:19:08;;;;;;;11.85;2.13;;;;;;;9.57;65.16;100002.50;5025686;28;20049;-87
2021/12/24 12:21:37;;;;;;;2.70;1.65;;;;;;;9.50;64.84;100001.81;5022180;28;20064;-87
2021/12/24 12:26:50;;;;;;;4.13;1.80;;;;;;;9.68;64.08;100003.03;5021006;28;20048;-87
2021/12/24 12:29:23;;;;;;;8.18;1.58;;;;;;;9.76;64.50;99995.88;5029006;28;20049;-88
2021/12/24 12:31:55;;;;;;;7.93;1.45;;;;;;;9.71;65.14;99993.44;5022807;28;20061;-88
2021/12/24 12:34:48;;;;;;;7.65;1.80;;;;;;;9.83;63.79;100000.00;5025701;28;20035;-88
2021/12/24 12:37:18;;;;;;;9.02;2.08;;;;;;;9.82;63.24;100006.06;5006610;28;20044;-88
2021/12/24 12:39:45;;;;;;;5.75;1.63;;;;;;;9.75;63.75;100000.19;5026099;28;20038;-88
2021/12/24 12:42:14;;;;;;;5.85;1.65;;;;;;;9.69;63.82;100008.16;5028788;28;20028;-88
2021/12/24 12:44:45;;;;;;;5.78;1.75;;;;;;;9.68;64.10;100008.22;5025344;28;20446;-88
2021/12/24 12:47:16;;;;;;;3.55;1.48;;;;;;;9.78;63.47;100010.47;5025425;28;20041;-88
2021/12/24 12:49:43;;;;;;;6.88;1.40;;;;;;;9.73;63.33;100008.94;5024183;28;20083;-88
2021/12/24 12:52:20;;;;;;;8.50;1.95;;;;;;;9.80;63.21;99997.50;5028023;28;20032;-88
2021/12/24 12:54:49;;;;;;;9.68;1.83;;;;;;;9.50;64.05;99995.78;5020195;28;20069;-88
2021/12/24 12:57:19;;;;;;;4.57;1.70;;;;;;;9.40;64.28;100005.56;5025813;28;20018;-88
2021/12/24 13:00:24;;;;;;;3.67;1.60;;;;;;;9.55;63.65;99997.34;5022245;28;20064;-87
2021/12/24 13:05:40;;;;;;;9.10;2.72;;;;;;;9.53;64.34;100001.75;5020214;28;20072;-87
2021/12/24 13:08:18;;;;;;;7.18;3.20;;;;;;;9.38;64.70;99994.41;5022036;28;20025;-87
2021/12/24 13:10:58;;;;;;;6.43;2.00;;;;;;;9.53;64.06;99991.38;5020677;28;20045;-87
2021/12/24 13:13:24;;;;;;;7.00;1.88;;;;;;;9.55;64.37;99993.91;5021878;28;20662;-87
2021/12/24 13:15:50;;;;;;;4.72;1.83;;;;;;;9.64;64.19;99993.63;5027980;28;20037;-88
2021/12/24 13:18:34;;;;;;;4.40;2.00;;;;;;;9.55;64.68;99992.16;5025041;28;20049;-87
2021/12/24 13:23:39;;;;;;;6.00;2.40;;;;;;;9.45;65.15;99993.34;5052217;28;20521;-87
2021/12/24 13:26:16;;;;;;;4.60;1.42;;;;;;;9.33;65.52;99994.50;5025833;28;20049;-87
2021/12/24 13:28:58;;;;;;;4.85;1.92;;;;;;;9.49;65.21;99983.72;5021704;28;20514;-87
2021/12/24 13:31:28;;;;;;;6.20;1.85;;;;;;;9.55;65.01;99984.38;5016889;28;20049;-87
2021/12/24 13:33:53;;;;;;;5.55;1.67;;;;;;;9.56;65.03;99977.47;5022694;28;20045;-88
2021/12/24 13:36:25;;;;;;;9.48;2.47;;;;;;;9.41;65.63;99976.16;5019890;28;20032;-87